ADDS METAR Data

Data at: 0745 UTC 24 Oct 2017

METAR for:KEWB (New Bedford Rgnl, MA, US)
Text:KEWB 240653Z AUTO 16013KT 10SM BKN070 19/17 A3009 RMK AO2 SLP188 T01890167
Temperature: 18.9°C ( 66°F)
Dewpoint: 16.7°C ( 62°F) [RH = 87%]
Pressure (altimeter):30.09 inches Hg (1019.0 mb) [Sea level pressure: 1018.8 mb]
Winds:from the SSE (160 degrees) at 15 MPH (13 knots; 6.7 m/s)
Visibility:10 or more sm (16+ km)
Ceiling:7000 feet AGL
Clouds: broken clouds at 7000 feet AGL
QC Flag:automated observation with no human augmentation